Time;durP1;ratioP1;P1;durP2;ratioP2;P2;SDS_P1;SDS_P2;PMS_P1;PMS_P2;Temp;Humidity;BMP_temperature;BMP_pressure;BME280_temperature;BME280_humidity;BME280_pressure;Samples;Min_cycle;Max_cycle;Signal;HPM_P1;HPM_P2
2022/05/16 00:00:14;;;;;;;23.13;20.50;;;15.30;99.90;;;;;;4948415;28;20089;-76
2022/05/16 00:02:41;;;;;;;21.83;20.10;;;15.20;99.90;;;;;;4965573;28;20082;-76
2022/05/16 00:05:08;;;;;;;22.13;20.38;;;15.10;99.90;;;;;;4963809;28;20050;-76
2022/05/16 00:07:36;;;;;;;21.95;20.15;;;14.90;99.90;;;;;;4965635;28;20545;-75
2022/05/16 00:10:03;;;;;;;23.05;20.65;;;14.80;99.90;;;;;;4947187;28;20149;-76
2022/05/16 00:12:30;;;;;;;22.98;21.25;;;14.60;99.90;;;;;;4968362;28;20090;-76
2022/05/16 00:14:57;;;;;;;23.70;21.70;;;14.50;99.90;;;;;;4953931;28;20174;-75
2022/05/16 00:17:24;;;;;;;24.08;21.73;;;14.30;99.90;;;;;;4964485;28;20502;-76
2022/05/16 00:19:51;;;;;;;25.00;22.35;;;14.20;99.90;;;;;;4948478;28;20042;-76
2022/05/16 00:22:18;;;;;;;24.55;21.98;;;14.20;99.90;;;;;;4947977;28;20520;-75
2022/05/16 00:24:45;;;;;;;24.08;22.25;;;14.00;99.90;;;;;;4931315;28;20113;-76
2022/05/16 00:27:12;;;;;;;24.67;22.05;;;14.00;99.90;;;;;;4947627;28;20327;-76
2022/05/16 00:29:39;;;;;;;24.75;22.50;;;14.00;99.90;;;;;;4930929;28;20054;-76
2022/05/16 00:32:07;;;;;;;25.60;22.13;;;14.00;99.90;;;;;;4964819;28;20058;-75
2022/05/16 00:34:34;;;;;;;22.90;20.95;;;14.00;99.90;;;;;;4947180;28;20054;-76
2022/05/16 00:37:01;;;;;;;22.90;20.65;;;14.10;99.90;;;;;;4964362;28;20074;-75
2022/05/16 00:39:29;;;;;;;23.05;20.77;;;14.30;99.90;;;;;;4948343;28;20046;-76
2022/05/16 00:41:56;;;;;;;23.65;21.25;;;14.50;99.90;;;;;;4965987;28;20100;-76
2022/05/16 00:44:24;;;;;;;22.85;20.90;;;14.60;99.90;;;;;;4971413;28;20042;-76
2022/05/16 00:46:51;;;;;;;22.67;20.42;;;14.60;99.90;;;;;;4946624;28;20046;-75
2022/05/16 00:49:31;;;;;;;24.25;21.42;;;14.70;99.90;;;;;;4975928;28;20380;-76
2022/05/16 00:52:06;;;;;;;21.67;19.92;;;14.70;99.90;;;;;;4945349;28;20440;-76
2022/05/16 00:54:49;;;;;;;22.08;20.48;;;14.70;99.90;;;;;;4944705;28;20051;-75
2022/05/16 00:57:32;;;;;;;22.90;20.55;;;14.70;99.90;;;;;;4943928;28;20301;-76
2022/05/16 01:00:16;;;;;;;22.08;20.27;;;14.70;99.90;;;;;;4928246;29;20094;-76
2022/05/16 01:05:32;;;;;;;23.05;20.65;;;14.70;99.90;;;;;;4954654;28;20055;-75
2022/05/16 01:08:03;;;;;;;22.48;20.05;;;14.70;99.90;;;;;;4964838;28;20137;-76
2022/05/16 01:10:30;;;;;;;26.60;19.67;;;14.70;99.90;;;;;;4964933;28;20178;-76
2022/05/16 01:12:57;;;;;;;22.40;20.50;;;14.60;99.90;;;;;;4955535;28;20073;-76
2022/05/16 01:15:23;;;;;;;22.35;20.23;;;14.60;99.90;;;;;;4951877;28;20488;-76
2022/05/16 01:17:50;;;;;;;23.85;20.00;;;14.60;99.90;;;;;;4930570;28;20142;-76
2022/05/16 01:20:17;;;;;;;22.92;20.85;;;14.60;99.90;;;;;;4946327;28;20082;-75
2022/05/16 01:22:47;;;;;;;22.58;20.42;;;14.60;99.90;;;;;;4945681;28;20092;-76
2022/05/16 01:25:28;;;;;;;21.77;19.85;;;14.60;99.90;;;;;;4946156;28;20089;-76
2022/05/16 01:28:04;;;;;;;21.35;19.30;;;14.50;99.90;;;;;;4946519;28;20110;-75
2022/05/16 01:30:39;;;;;;;21.80;19.95;;;14.50;99.90;;;;;;4946359;28;20347;-76
2022/05/16 01:33:06;;;;;;;22.10;20.40;;;14.50;99.90;;;;;;4943836;28;20078;-76
2022/05/16 01:35:33;;;;;;;23.23;21.08;;;14.40;99.90;;;;;;4948378;28;20054;-76
2022/05/16 01:38:19;;;;;;;22.15;20.45;;;14.40;99.90;;;;;;4946748;28;20105;-76
2022/05/16 01:40:46;;;;;;;21.85;20.08;;;14.40;99.90;;;;;;4946336;28;20063;-76
2022/05/16 01:43:14;;;;;;;20.95;19.52;;;14.30;99.90;;;;;;4965008;28;20108;-76
2022/05/16 01:45:43;;;;;;;21.80;20.23;;;14.20;99.90;;;;;;4963077;28;20134;-76
2022/05/16 01:48:14;;;;;;;26.70;20.85;;;14.30;99.90;;;;;;4946648;28;20145;-76
2022/05/16 01:50:42;;;;;;;22.42;20.25;;;14.30;99.90;;;;;;4962825;28;20063;-76
2022/05/16 01:53:10;;;;;;;23.35;21.10;;;14.30;99.90;;;;;;4963228;28;20069;-77
2022/05/16 01:55:37;;;;;;;22.30;20.17;;;14.20;99.90;;;;;;4963293;28;20106;-75
2022/05/16 01:58:05;;;;;;;22.75;20.48;;;14.20;99.90;;;;;;4961753;28;20125;-76
2022/05/16 02:00:33;;;;;;;24.02;21.83;;;14.10;99.90;;;;;;4945203;28;20081;-76
2022/05/16 02:03:00;;;;;;;23.38;21.20;;;14.00;99.90;;;;;;4963278;28;20105;-76
2022/05/16 02:05:28;;;;;;;22.58;20.65;;;14.10;99.90;;;;;;4963456;28;20141;-76
2022/05/16 02:07:55;;;;;;;23.45;21.50;;;14.00;99.90;;;;;;4945777;28;20128;-76
2022/05/16 02:10:24;;;;;;;25.50;22.08;;;14.00;99.90;;;;;;4960889;28;20629;-76
2022/05/16 02:12:52;;;;;;;23.38;21.02;;;14.00;99.90;;;;;;4971936;28;20139;-76
2022/05/16 02:15:22;;;;;;;23.63;21.73;;;14.00;99.90;;;;;;4948112;28;20115;-76
2022/05/16 02:17:51;;;;;;;22.17;20.33;;;14.00;99.90;;;;;;4951227;28;20470;-76
2022/05/16 02:20:18;;;;;;;23.27;21.05;;;13.90;99.90;;;;;;4934776;28;20050;-73
2022/05/16 02:25:36;;;;;;;23.40;21.23;;;14.00;99.90;;;;;;4954088;28;20046;-73
2022/05/16 02:28:05;;;;;;;23.50;21.35;;;13.90;99.90;;;;;;4955185;28;20332;-72
2022/05/16 02:30:32;;;;;;;23.95;21.05;;;13.90;99.90;;;;;;4955487;28;20043;-72
2022/05/16 02:32:59;;;;;;;22.92;20.95;;;13.90;99.90;;;;;;4954043;28;20051;-73
2022/05/16 02:35:26;;;;;;;22.55;20.73;;;13.90;99.90;;;;;;4955931;28;20047;-72
2022/05/16 02:37:53;;;;;;;25.17;21.33;;;14.00;99.90;;;;;;4956868;28;20443;-73
2022/05/16 02:40:19;;;;;;;22.88;20.80;;;14.00;99.90;;;;;;4938862;28;20112;-72
2022/05/16 02:42:46;;;;;;;22.45;20.60;;;14.00;99.90;;;;;;4954188;28;20563;-72
2022/05/16 02:45:13;;;;;;;24.02;21.40;;;13.90;99.90;;;;;;4954099;28;20186;-72
2022/05/16 02:47:41;;;;;;;22.42;20.13;;;13.90;99.90;;;;;;4954228;28;20570;-73
2022/05/16 02:50:08;;;;;;;24.00;21.60;;;14.00;99.90;;;;;;4951982;28;20253;-74
2022/05/16 02:52:35;;;;;;;23.60;21.45;;;13.90;99.90;;;;;;4955335;28;20062;-72
2022/05/16 02:55:03;;;;;;;23.40;21.35;;;13.90;99.90;;;;;;4937418;28;20133;-74
2022/05/16 02:57:31;;;;;;;23.77;21.70;;;13.90;99.90;;;;;;4954806;28;20054;-73
2022/05/16 02:59:59;;;;;;;23.92;21.77;;;13.90;99.90;;;;;;4955136;28;20073;-73
2022/05/16 03:02:26;;;;;;;24.00;21.73;;;13.80;99.90;;;;;;4950925;28;20047;-73
2022/05/16 03:04:53;;;;;;;25.45;22.73;;;13.80;99.90;;;;;;4955085;28;20514;-72
2022/05/16 03:07:20;;;;;;;25.67;23.17;;;13.70;99.90;;;;;;4954630;28;20252;-73
2022/05/16 03:09:47;;;;;;;24.83;22.50;;;13.60;99.90;;;;;;4956513;28;20047;-73
2022/05/16 03:12:14;;;;;;;24.10;21.63;;;13.50;99.90;;;;;;4957953;28;20050;-72
2022/05/16 03:14:41;;;;;;;26.20;23.70;;;13.50;99.90;;;;;;4956937;28;20173;-73
2022/05/16 03:17:08;;;;;;;26.65;22.88;;;13.50;99.90;;;;;;4957204;28;20046;-73
2022/05/16 03:19:35;;;;;;;23.95;22.30;;;13.50;99.90;;;;;;4958120;28;20127;-73
2022/05/16 03:22:04;;;;;;;24.83;22.65;;;13.50;99.90;;;;;;4958203;28;20058;-74
2022/05/16 03:24:32;;;;;;;24.55;22.50;;;13.50;99.90;;;;;;4956346;28;20661;-73
2022/05/16 03:27:00;;;;;;;24.77;22.75;;;13.30;99.90;;;;;;4957607;28;20054;-72
2022/05/16 03:29:27;;;;;;;26.25;23.58;;;13.10;99.90;;;;;;4957928;28;20480;-73
2022/05/16 03:31:55;;;;;;;25.70;23.20;;;13.10;99.90;;;;;;4956111;28;20359;-74
2022/05/16 03:34:22;;;;;;;25.17;22.85;;;13.10;99.90;;;;;;4957295;28;20047;-74
2022/05/16 03:36:49;;;;;;;25.65;23.17;;;13.10;99.90;;;;;;4958412;28;20085;-72
2022/05/16 03:42:07;;;;;;;25.13;22.80;;;13.10;99.90;;;;;;4948578;28;20286;-73
2022/05/16 03:44:34;;;;;;;31.45;28.63;;;13.10;99.90;;;;;;4957882;28;20113;-72
2022/05/16 03:47:01;;;;;;;25.55;22.98;;;13.10;99.90;;;;;;4958404;28;20674;-73
2022/05/16 03:49:30;;;;;;;24.13;21.65;;;13.10;99.90;;;;;;4958403;28;20412;-73
2022/05/16 03:51:57;;;;;;;24.88;22.65;;;13.00;99.90;;;;;;4955499;28;20078;-73
2022/05/16 03:54:27;;;;;;;24.65;22.55;;;12.90;99.90;;;;;;4955572;28;20055;-73
2022/05/16 03:56:54;;;;;;;29.25;27.05;;;12.90;99.90;;;;;;4951552;28;20058;-73
2022/05/16 03:59:20;;;;;;;29.75;27.50;;;12.90;99.90;;;;;;4956326;28;20058;-73
2022/05/16 04:01:49;;;;;;;30.25;27.92;;;13.00;99.90;;;;;;4955212;28;20411;-73
2022/05/16 04:04:16;;;;;;;30.73;27.83;;;13.20;99.90;;;;;;4956441;28;20142;-73
2022/05/16 04:06:45;;;;;;;30.33;27.88;;;13.30;99.90;;;;;;4957359;28;20137;-72
2022/05/16 04:09:12;;;;;;;31.98;28.75;;;13.40;99.90;;;;;;4941224;28;20448;-73
2022/05/16 04:11:39;;;;;;;30.30;27.88;;;13.40;99.90;;;;;;4956005;28;20058;-72
2022/05/16 04:14:07;;;;;;;31.85;28.63;;;13.40;99.90;;;;;;4954159;28;20303;-75
2022/05/16 04:16:33;;;;;;;29.50;27.13;;;13.50;99.90;;;;;;4955613;28;20543;-73
2022/05/16 04:19:00;;;;;;;30.52;27.83;;;13.50;99.90;;;;;;4957877;28;20236;-73
2022/05/16 04:21:27;;;;;;;29.95;27.55;;;13.50;99.90;;;;;;4955954;28;20201;-73
2022/05/16 04:23:54;;;;;;;30.25;27.33;;;13.50;99.90;;;;;;4955923;28;20047;-72
2022/05/16 04:26:21;;;;;;;30.05;27.27;;;13.50;99.90;;;;;;4959544;28;20073;-73
2022/05/16 04:28:48;;;;;;;30.17;27.67;;;13.50;99.90;;;;;;4955927;28;20463;-73
2022/05/16 04:31:15;;;;;;;29.40;27.30;;;13.50;99.90;;;;;;4956904;28;20050;-75
2022/05/16 04:33:41;;;;;;;30.98;27.92;;;13.60;99.90;;;;;;4956183;28;20137;-74
2022/05/16 04:36:08;;;;;;;29.92;27.27;;;13.60;99.90;;;;;;4940257;28;20054;-73
2022/05/16 04:38:35;;;;;;;29.90;27.13;;;13.60;99.90;;;;;;4957863;28;20333;-73
2022/05/16 04:43:49;;;;;;;30.67;27.58;;;13.60;99.90;;;;;;4955416;28;20047;-74
2022/05/16 04:46:15;;;;;;;29.00;26.58;;;13.70;99.90;;;;;;4955965;28;20857;-73
2022/05/16 04:48:43;;;;;;;30.65;27.70;;;13.70;99.90;;;;;;4953726;28;20086;-74
2022/05/16 04:51:11;;;;;;;28.80;26.23;;;13.80;99.90;;;;;;4952285;28;20051;-73
2022/05/16 04:53:38;;;;;;;29.60;26.80;;;13.90;99.90;;;;;;4950767;28;20066;-73
2022/05/16 04:56:06;;;;;;;29.55;26.98;;;14.00;99.90;;;;;;4938392;28;20059;-74
2022/05/16 04:58:33;;;;;;;28.15;26.13;;;14.10;99.90;;;;;;4956728;28;20054;-72
2022/05/16 05:01:01;;;;;;;29.83;27.40;;;14.30;99.90;;;;;;4956929;28;20475;-73
2022/05/16 05:03:29;;;;;;;28.40;25.98;;;14.40;99.90;;;;;;4956797;28;20082;-76
2022/05/16 05:05:56;;;;;;;28.45;25.88;;;14.60;99.90;;;;;;4954591;28;20057;-73
2022/05/16 05:08:23;;;;;;;28.63;26.05;;;14.90;99.90;;;;;;4940116;28;20113;-73
2022/05/16 05:16:22;;;;;;;;;;;15.70;99.90;;;;;;4955176;28;20137;-73
2022/05/16 05:18:49;;;;;;;27.15;24.75;;;16.00;99.90;;;;;;4955941;28;20619;-73
2022/05/16 05:21:15;;;;;;;28.90;26.55;;;16.00;99.90;;;;;;4955487;28;20042;-74
2022/05/16 05:23:42;;;;;;;27.05;25.17;;;16.20;99.90;;;;;;4957268;28;20495;-73
2022/05/16 05:26:10;;;;;;;28.48;26.17;;;16.40;99.90;;;;;;4939715;28;20038;-74
2022/05/16 05:28:38;;;;;;;28.55;26.02;;;16.10;99.90;;;;;;4958647;28;20554;-73
2022/05/16 05:31:13;;;;;;;27.35;25.05;;;16.00;99.90;;;;;;4961145;28;20046;-73
2022/05/16 05:33:42;;;;;;;27.15;25.05;;;16.00;99.90;;;;;;4960009;28;20409;-75
2022/05/16 05:36:09;;;;;;;27.08;24.77;;;16.10;99.90;;;;;;4940245;28;20105;-74
2022/05/16 05:38:37;;;;;;;28.10;26.15;;;16.20;99.90;;;;;;4957154;28;20346;-74
2022/05/16 05:41:06;;;;;;;29.58;27.27;;;16.30;99.90;;;;;;4938367;28;20051;-75
2022/05/16 05:43:33;;;;;;;27.38;25.20;;;16.30;99.90;;;;;;4936172;28;20051;-73
2022/05/16 05:46:03;;;;;;;29.63;26.92;;;16.20;99.90;;;;;;4956226;28;20118;-73
2022/05/16 05:48:29;;;;;;;28.45;26.25;;;16.00;99.90;;;;;;4957873;28;20059;-73
2022/05/16 05:50:56;;;;;;;27.92;25.73;;;16.00;99.90;;;;;;4956584;28;20109;-73
2022/05/16 05:53:23;;;;;;;26.85;24.73;;;16.10;99.90;;;;;;4953344;28;20089;-73
2022/05/16 05:55:50;;;;;;;28.35;25.65;;;16.20;99.90;;;;;;4953152;28;20074;-73
2022/05/16 05:58:17;;;;;;;27.45;25.00;;;16.60;99.90;;;;;;4967841;28;20101;-74
2022/05/16 06:00:44;;;;;;;26.23;24.35;;;16.90;99.90;;;;;;4976131;28;20101;-74
2022/05/16 06:03:12;;;;;;;26.30;24.27;;;17.30;99.90;;;;;;4972023;28;20065;-73
2022/05/16 06:05:39;;;;;;;24.52;22.58;;;17.10;99.90;;;;;;4954070;28;20058;-73
2022/05/16 06:08:06;;;;;;;25.40;23.42;;;17.40;99.90;;;;;;4937279;28;20773;-74
2022/05/16 06:10:33;;;;;;;26.55;24.33;;;17.70;99.90;;;;;;4934417;28;20458;-74
2022/05/16 06:13:03;;;;;;;27.25;25.25;;;17.90;99.90;;;;;;4938839;28;20054;-74
2022/05/16 06:15:29;;;;;;;26.00;23.73;;;18.00;99.90;;;;;;4949466;28;20183;-74
2022/05/16 06:17:56;;;;;;;27.13;24.52;;;18.20;99.90;;;;;;4953704;28;20062;-74
2022/05/16 06:20:24;;;;;;;28.23;26.27;;;18.10;99.90;;;;;;4956058;28;20139;-74
2022/05/16 06:22:51;;;;;;;28.48;26.50;;;18.00;99.90;;;;;;4954300;28;20401;-74
2022/05/16 06:25:31;;;;;;;29.20;26.98;;;18.10;99.90;;;;;;4954145;28;20063;-74
2022/05/16 06:28:00;;;;;;;28.77;26.85;;;18.10;99.90;;;;;;4964428;28;20058;-72
2022/05/16 06:30:27;;;;;;;28.60;26.50;;;18.20;99.90;;;;;;4951501;28;20451;-73
2022/05/16 06:32:54;;;;;;;28.40;26.33;;;18.40;99.90;;;;;;4953916;28;20324;-76
2022/05/16 06:35:21;;;;;;;29.77;27.63;;;18.20;99.90;;;;;;4954545;28;20055;-73
2022/05/16 06:37:49;;;;;;;28.48;26.48;;;18.40;99.90;;;;;;4956215;28;20439;-74
2022/05/16 06:40:18;;;;;;;30.50;27.92;;;18.60;99.90;;;;;;4955540;28;20035;-75
2022/05/16 06:42:45;;;;;;;29.42;27.30;;;18.50;99.90;;;;;;4955108;28;20635;-73
2022/05/16 06:45:14;;;;;;;28.98;27.02;;;18.80;99.90;;;;;;4938690;28;20059;-73
2022/05/16 06:47:41;;;;;;;29.48;27.55;;;18.90;99.90;;;;;;4962823;28;20061;-73
2022/05/16 06:50:09;;;;;;;28.48;26.63;;;19.10;99.90;;;;;;4959751;28;20035;-75
2022/05/16 06:52:35;;;;;;;29.70;27.42;;;19.30;99.90;;;;;;4961940;28;20280;-73
2022/05/16 06:55:03;;;;;;;28.65;26.50;;;18.80;99.90;;;;;;4961766;28;20229;-74
2022/05/16 06:57:30;;;;;;;29.63;27.20;;;18.90;99.90;;;;;;4961419;28;20055;-75
2022/05/16 06:59:57;;;;;;;29.85;27.58;;;19.00;99.90;;;;;;4961716;28;20291;-75
2022/05/16 07:02:24;;;;;;;28.13;25.85;;;19.10;99.90;;;;;;4951165;28;20074;-74
2022/05/16 07:04:51;;;;;;;29.15;26.75;;;19.40;99.90;;;;;;4959018;28;20055;-73
2022/05/16 07:07:18;;;;;;;28.90;26.70;;;19.60;99.90;;;;;;4976071;28;20403;-75
2022/05/16 07:09:46;;;;;;;27.83;25.88;;;19.20;99.90;;;;;;4963857;28;20057;-75
2022/05/16 07:12:13;;;;;;;28.98;27.00;;;19.40;99.90;;;;;;4960692;28;20100;-73
2022/05/16 07:14:40;;;;;;;29.02;27.08;;;18.90;99.90;;;;;;4959571;28;20133;-74
2022/05/16 07:17:07;;;;;;;29.30;27.17;;;18.90;99.90;;;;;;4961420;28;20515;-74
2022/05/16 07:19:35;;;;;;;29.67;27.55;;;18.80;99.90;;;;;;4962809;28;20153;-75
2022/05/16 07:22:11;;;;;;;29.75;27.52;;;19.30;99.90;;;;;;4962485;28;20081;-73
2022/05/16 07:24:43;;;;;;;29.42;26.77;;;19.60;99.90;;;;;;4960925;28;20115;-73
2022/05/16 07:29:56;;;;;;;30.20;27.50;;;19.80;99.90;;;;;;4961194;28;20418;-73
2022/05/16 07:32:23;;;;;;;28.02;25.90;;;19.60;99.90;;;;;;4959291;28;20132;-74
2022/05/16 07:34:50;;;;;;;29.40;26.80;;;19.60;99.90;;;;;;4979738;28;20446;-75
2022/05/16 07:37:16;;;;;;;29.65;27.27;;;20.10;99.90;;;;;;4980695;28;20125;-74
2022/05/16 07:39:43;;;;;;;28.23;26.23;;;20.10;99.90;;;;;;4980191;28;20124;-73
2022/05/16 07:42:10;;;;;;;30.45;28.45;;;20.10;99.90;;;;;;4945342;28;20102;-75
2022/05/16 07:44:40;;;;;;;29.25;27.27;;;20.00;99.90;;;;;;4958691;28;20059;-75
2022/05/16 07:47:07;;;;;;;30.00;27.55;;;20.30;99.90;;;;;;4960354;28;20454;-74
2022/05/16 07:49:34;;;;;;;29.05;26.88;;;20.30;99.90;;;;;;4941383;28;20062;-74
2022/05/16 07:52:01;;;;;;;28.30;26.35;;;20.40;99.90;;;;;;4959630;28;20070;-74
2022/05/16 07:54:28;;;;;;;29.70;27.60;;;20.50;99.90;;;;;;4960615;28;20055;-74
2022/05/16 07:56:54;;;;;;;28.70;26.55;;;20.40;99.90;;;;;;4956744;28;20050;-74
2022/05/16 07:59:21;;;;;;;29.60;27.35;;;20.30;99.90;;;;;;4957861;28;20585;-76
2022/05/16 08:01:48;;;;;;;30.90;27.92;;;20.60;99.90;;;;;;4954186;28;20117;-74
2022/05/16 08:04:16;;;;;;;27.50;25.40;;;20.90;99.90;;;;;;4957225;28;20038;-75
2022/05/16 08:06:43;;;;;;;28.35;26.42;;;20.80;99.90;;;;;;4975689;28;20058;-73
2022/05/16 08:11:55;;;;;;;28.13;26.05;;;20.90;99.90;;;;;;4968722;28;20571;-75
2022/05/16 08:14:22;;;;;;;28.63;26.35;;;21.10;99.90;;;;;;4955616;28;20050;-74
2022/05/16 08:16:49;;;;;;;27.50;25.67;;;21.00;99.90;;;;;;4955939;28;20227;-74
2022/05/16 08:19:16;;;;;;;28.08;25.77;;;21.00;99.90;;;;;;5012387;23;20053;-77
2022/05/16 08:21:43;;;;;;;28.42;25.95;;;21.20;99.90;;;;;;4998399;28;20065;-77
2022/05/16 08:24:11;;;;;;;28.08;26.10;;;20.90;99.90;;;;;;4975263;28;20041;-76
2022/05/16 08:26:38;;;;;;;28.70;26.58;;;20.80;99.90;;;;;;5004631;28;20053;-77
2022/05/16 08:29:05;;;;;;;27.98;25.85;;;20.90;99.90;;;;;;4969958;28;20058;-76
2022/05/16 08:31:32;;;;;;;28.50;26.30;;;20.80;99.90;;;;;;4968737;28;20073;-76
2022/05/16 08:33:59;;;;;;;27.30;25.13;;;20.40;99.90;;;;;;4993107;28;20105;-77
2022/05/16 08:42:02;;;;;;;27.35;25.10;;;20.00;99.90;;;;;;5005504;28;20115;-77
2022/05/16 08:44:52;;;;;;;29.42;26.35;;;20.20;99.90;;;;;;4990438;28;20046;-77
2022/05/16 08:47:38;;;;;;;28.25;26.35;;;20.40;99.90;;;;;;4977249;28;20050;-77
2022/05/16 08:50:15;;;;;;;28.95;26.92;;;20.40;99.90;;;;;;4986712;28;20042;-77
2022/05/16 08:53:00;;;;;;;31.63;28.05;;;20.50;99.90;;;;;;4969873;28;20050;-77
2022/05/16 08:55:46;;;;;;;29.25;26.95;;;20.20;99.90;;;;;;4950496;28;20126;-76
2022/05/16 08:58:16;;;;;;;;;;;19.90;99.90;;;;;;4934376;28;20063;-77
2022/05/16 09:00:54;;;;;;;30.75;27.35;;;19.90;99.90;;;;;;4964178;28;19968;-76
2022/05/16 09:03:46;;;;;;;29.52;27.38;;;19.90;99.90;;;;;;4979171;28;20053;-76
2022/05/16 09:06:22;;;;;;;30.20;27.70;;;19.80;99.90;;;;;;4982691;28;20452;-76
2022/05/16 09:08:52;;;;;;;29.77;27.45;;;19.70;99.90;;;;;;4983525;28;20046;-76
2022/05/16 09:11:46;;;;;;;29.60;27.52;;;19.90;99.90;;;;;;4949548;28;20051;-76
2022/05/16 09:14:28;;;;;;;30.67;28.08;;;20.30;99.90;;;;;;4988832;28;20054;-75
2022/05/16 09:16:59;;;;;;;29.52;27.10;;;20.40;99.90;;;;;;4968140;28;20804;-76
2022/05/16 09:19:53;;;;;;;30.45;27.70;;;20.60;99.90;;;;;;4968148;28;20056;-77
2022/05/16 09:22:44;;;;;;;29.23;26.75;;;20.70;99.90;;;;;;4985062;28;20042;-75
2022/05/16 09:25:18;;;;;;;29.55;27.25;;;20.70;99.90;;;;;;4967349;28;20042;-77
2022/05/16 09:30:37;;;;;;;27.73;25.50;;;20.50;99.90;;;;;;4993920;28;20057;-77
2022/05/16 09:33:12;;;;;;;29.05;27.05;;;20.50;99.90;;;;;;4993075;28;20057;-77
2022/05/16 09:35:47;;;;;;;28.60;26.10;;;20.60;99.90;;;;;;4983876;28;20081;-77
2022/05/16 09:38:14;;;;;;;29.30;27.15;;;20.50;99.90;;;;;;4968899;28;20118;-77
2022/05/16 09:40:59;;;;;;;27.85;25.77;;;20.60;99.90;;;;;;4969102;28;20077;-77
2022/05/16 09:43:31;;;;;;;29.00;26.70;;;20.80;99.90;;;;;;4974480;28;20048;-77
2022/05/16 09:46:23;;;;;;;28.58;26.33;;;20.70;99.90;;;;;;4984151;28;20038;-77
2022/05/16 09:49:13;;;;;;;28.13;26.05;;;20.90;99.90;;;;;;4970959;28;20110;-78
2022/05/16 09:51:40;;;;;;;29.33;26.90;;;21.00;99.90;;;;;;4967602;28;20050;-77
2022/05/16 09:54:26;;;;;;;28.42;26.00;;;21.00;99.90;;;;;;4983610;28;20140;-77
2022/05/16 09:57:04;;;;;;;30.55;27.92;;;21.00;99.90;;;;;;4965724;28;20821;-77
2022/05/16 09:59:43;;;;;;;27.67;25.00;;;20.90;99.90;;;;;;4949476;28;20051;-77
2022/05/16 10:02:22;;;;;;;29.92;27.55;;;20.90;99.90;;;;;;4948920;28;20058;-78
2022/05/16 10:04:57;;;;;;;29.75;27.83;;;20.90;99.90;;;;;;4950317;28;20050;-78
2022/05/16 10:07:44;;;;;;;31.77;28.98;;;20.90;99.90;;;;;;4968244;28;20057;-77
2022/05/16 10:10:19;;;;;;;31.67;29.30;;;20.90;99.90;;;;;;4967936;28;20085;-77
2022/05/16 10:12:49;;;;;;;32.13;29.48;;;20.90;99.90;;;;;;4975183;28;20054;-77
2022/05/16 10:15:17;;;;;;;31.30;28.70;;;20.80;99.90;;;;;;4988544;28;20090;-78
2022/05/16 10:17:45;;;;;;;30.65;28.40;;;20.80;99.90;;;;;;4986325;28;20050;-78
2022/05/16 10:20:23;;;;;;;30.52;28.08;;;20.90;99.90;;;;;;4983476;28;20054;-77
2022/05/16 10:22:55;;;;;;;30.85;28.42;;;20.80;99.90;;;;;;4984580;28;20057;-77
2022/05/16 10:25:44;;;;;;;31.65;28.67;;;20.80;99.90;;;;;;4998563;28;20038;-78
2022/05/16 10:28:17;;;;;;;30.83;28.48;;;20.60;99.90;;;;;;4968152;28;20105;-78
2022/05/16 10:33:36;;;;;;;31.40;28.67;;;20.20;99.90;;;;;;4968160;28;20081;-78
2022/05/16 10:36:12;;;;;;;31.25;28.60;;;20.20;99.90;;;;;;4966770;28;20575;-78
2022/05/16 10:38:52;;;;;;;31.45;28.92;;;20.20;99.90;;;;;;4985556;28;20070;-77
2022/05/16 10:41:23;;;;;;;32.30;29.33;;;20.20;99.90;;;;;;4967868;28;20050;-78
2022/05/16 10:44:08;;;;;;;31.98;29.52;;;20.10;99.90;;;;;;4978665;28;20073;-77
2022/05/16 10:46:39;;;;;;;32.28;29.75;;;20.00;99.90;;;;;;4970497;28;20039;-77
2022/05/16 10:49:18;;;;;;;33.60;30.65;;;19.90;99.90;;;;;;4983212;28;20112;-77
2022/05/16 10:51:54;;;;;;;33.55;30.88;;;19.90;99.90;;;;;;4962588;28;20194;-78
2022/05/16 10:54:24;;;;;;;33.13;30.75;;;20.00;99.90;;;;;;4962749;28;20332;-77
2022/05/16 10:56:50;;;;;;;34.83;31.48;;;20.00;99.90;;;;;;4963496;28;20046;-77
2022/05/16 10:59:46;;;;;;;32.42;29.70;;;19.80;99.90;;;;;;4964509;28;20196;-77
2022/05/16 11:02:46;;;;;;;38.17;35.33;;;19.80;99.90;;;;;;4962938;28;20465;-78
2022/05/16 11:05:39;;;;;;;39.80;36.47;;;19.80;99.90;;;;;;4976560;28;20077;-78
2022/05/16 11:08:24;;;;;;;41.15;37.75;;;19.80;99.90;;;;;;4965913;28;20412;-78
2022/05/16 11:11:10;;;;;;;;;;;19.60;99.90;;;;;;4965496;28;20050;-77
2022/05/16 11:13:51;;;;;;;37.72;34.42;;;19.60;99.90;;;;;;4982581;28;19929;-77
2022/05/16 11:16:32;;;;;;;39.63;35.92;;;19.30;99.90;;;;;;4982124;28;20065;-78
2022/05/16 11:19:43;;;;;;;35.42;32.50;;;19.00;99.90;;;;;;4978800;28;20109;-78
2022/05/16 11:22:17;;;;;;;35.92;33.08;;;19.00;99.90;;;;;;4885183;29;20072;-78
2022/05/16 11:24:59;;;;;;;38.60;35.23;;;18.80;99.90;;;;;;4883212;29;20257;-78
2022/05/16 11:28:01;;;;;;;38.83;35.53;;;18.50;99.90;;;;;;4935678;28;20047;-79
2022/05/16 11:30:38;;;;;;;34.10;31.42;;;18.20;99.90;;;;;;4969389;28;20050;-79
2022/05/16 11:33:28;;;;;;;34.45;31.55;;;18.00;99.90;;;;;;4972329;28;20058;-77
2022/05/16 11:36:01;;;;;;;31.55;29.02;;;18.10;99.90;;;;;;4990248;28;20042;-78
2022/05/16 11:38:38;;;;;;;30.67;27.92;;;18.30;99.90;;;;;;4985977;28;20042;-79
2022/05/16 11:41:28;;;;;;;33.67;30.90;;;18.60;99.90;;;;;;4976064;28;20161;-78
2022/05/16 11:44:16;;;;;;;32.72;30.35;;;18.60;99.90;;;;;;4975170;28;20145;-78
2022/05/16 11:46:53;;;;;;;29.38;26.55;;;18.70;99.90;;;;;;4976600;28;20053;-78
2022/05/16 11:49:51;;;;;;;36.35;33.58;;;19.10;99.90;;;;;;4959978;28;20035;-78
2022/05/16 11:53:02;;;;;;;37.15;34.22;;;19.40;99.90;;;;;;4990503;28;20046;-78
2022/05/16 12:01:26;;;;;;;37.55;34.67;;;20.40;99.90;;;;;;4980121;28;20183;-78
2022/05/16 12:04:14;;;;;;;36.85;33.28;;;20.60;99.90;;;;;;4991329;28;20389;-78
2022/05/16 12:06:48;;;;;;;35.50;33.05;;;20.80;99.90;;;;;;4956365;28;20110;-76
2022/05/16 12:09:23;;;;;;;35.63;32.47;;;20.80;99.90;;;;;;4970491;28;20054;-77
2022/05/16 12:11:53;;;;;;;35.75;33.05;;;21.00;99.90;;;;;;4987857;28;20082;-77
2022/05/16 12:14:32;;;;;;;36.90;34.15;;;21.00;99.90;;;;;;4983170;28;20050;-77
2022/05/16 12:17:26;;;;;;;36.05;33.05;;;21.10;99.90;;;;;;4967964;28;20574;-78
2022/05/16 12:19:53;;;;;;;35.60;32.78;;;21.20;99.90;;;;;;4960412;28;20113;-77
2022/05/16 12:22:22;;;;;;;34.53;31.77;;;21.30;99.90;;;;;;4972704;28;20108;-77
2022/05/16 12:24:52;;;;;;;35.20;32.50;;;21.20;99.90;;;;;;4972143;28;20054;-79
2022/05/16 12:27:29;;;;;;;34.42;31.85;;;21.10;99.90;;;;;;4972997;28;20425;-79
2022/05/16 12:29:58;;;;;;;34.97;32.33;;;21.30;99.90;;;;;;4969750;28;20386;-76
2022/05/16 12:32:31;;;;;;;34.90;32.63;;;21.20;99.90;;;;;;4970045;28;20642;-77
2022/05/16 12:35:05;;;;;;;33.08;30.73;;;21.20;99.90;;;;;;4989251;28;20595;-78
2022/05/16 12:37:34;;;;;;;32.93;30.30;;;21.60;99.90;;;;;;4981803;28;20117;-78
2022/05/16 12:40:13;;;;;;;32.90;30.00;;;21.80;99.90;;;;;;5000344;28;20392;-79
2022/05/16 12:43:06;;;;;;;30.77;28.13;;;21.90;99.90;;;;;;4993865;28;20263;-78
2022/05/16 12:45:58;;;;;;;29.80;27.48;;;22.00;99.90;;;;;;4993284;28;20031;-78
2022/05/16 12:49:05;;;;;;;30.15;27.88;;;21.90;99.90;;;;;;4992469;28;20093;-78
2022/05/16 12:51:46;;;;;;;30.48;28.17;;;22.10;99.90;;;;;;4991010;28;20215;-79
2022/05/16 12:55:11;;;;;;;31.40;28.73;;;22.30;99.90;;;;;;4953825;28;20055;-78
2022/05/16 12:57:52;;;;;;;30.00;27.63;;;22.50;99.90;;;;;;4916395;28;20047;-77
2022/05/16 13:00:28;;;;;;;28.95;26.55;;;22.80;99.90;;;;;;4984697;28;20097;-77
2022/05/16 13:03:14;;;;;;;29.98;27.33;;;22.80;99.90;;;;;;4985848;28;20050;-76
2022/05/16 13:06:03;;;;;;;28.08;25.98;;;22.80;99.90;;;;;;4989200;28;20049;-77
2022/05/16 13:09:03;;;;;;;29.23;26.80;;;22.80;99.90;;;;;;4986956;28;20493;-77
2022/05/16 13:12:04;;;;;;;29.63;27.27;;;22.80;99.90;;;;;;4968058;28;20505;-76
2022/05/16 13:14:37;;;;;;;30.15;27.73;;;22.60;99.90;;;;;;4977913;28;20050;-76
2022/05/16 13:17:12;;;;;;;29.38;27.00;;;22.30;99.90;;;;;;4982599;28;20527;-76
2022/05/16 13:19:43;;;;;;;;;;;21.80;99.90;;;;;;4967338;28;20501;-77
2022/05/16 13:22:15;;;;;;;30.90;28.65;;;22.20;99.90;;;;;;4984988;28;19926;-76
2022/05/16 13:24:43;;;;;;;29.58;27.08;;;22.70;99.90;;;;;;4979992;28;20567;-76
2022/05/16 13:30:07;;;;;;;27.85;25.85;;;22.90;99.90;;;;;;4969415;28;20532;-76
2022/05/16 13:32:34;;;;;;;28.15;26.10;;;23.10;99.90;;;;;;4984634;28;20066;-77
2022/05/16 13:35:05;;;;;;;27.83;26.02;;;23.00;99.90;;;;;;4968330;28;20143;-76